Time;durP1;ratioP1;P1;durP2;ratioP2;P2;SDS_P1;SDS_P2;PMS_P1;PMS_P2;Temp;Humidity;BMP_temperature;BMP_pressure;BME280_temperature;BME280_humidity;BME280_pressure;Samples;Min_cycle;Max_cycle;Signal;HPM_P1;HPM_P2
2021/07/17 00:00:46;;;;;;;12.32;6.50;;;;;;;;;;10553821;28;20028;-82
2021/07/17 00:05:47;;;;;;;9.10;5.68;;;;;;;;;;10536505;28;20105;-82
2021/07/17 00:10:49;;;;;;;10.80;5.13;;;;;;;;;;10536707;28;20032;-82
2021/07/17 00:15:53;;;;;;;9.25;5.55;;;;;;;;;;10535639;28;20114;-82
2021/07/17 00:20:53;;;;;;;10.57;5.80;;;;;;;;;;10535213;28;20127;-83
2021/07/17 00:25:57;;;;;;;10.68;6.13;;;;;;;;;;10553679;28;20075;-83
2021/07/17 00:30:58;;;;;;;10.30;5.85;;;;;;;;;;10553427;28;20036;-82
2021/07/17 00:35:59;;;;;;;8.43;5.85;;;;;;;;;;10534667;28;20498;-82
2021/07/17 00:41:00;;;;;;;11.73;7.22;;;;;;;;;;10534608;28;20040;-82
2021/07/17 00:46:01;;;;;;;11.05;6.30;;;;;;;;;;10534604;28;20024;-82
2021/07/17 00:51:02;;;;;;;17.08;7.88;;;;;;;;;;10534240;28;20032;-83
2021/07/17 00:56:04;;;;;;;11.65;6.15;;;;;;;;;;10550872;28;20508;-82
2021/07/17 01:01:05;;;;;;;14.40;6.70;;;;;;;;;;10533246;28;20153;-81
2021/07/17 01:06:06;;;;;;;14.50;7.28;;;;;;;;;;10533459;28;20543;-82
2021/07/17 01:11:07;;;;;;;13.23;6.78;;;;;;;;;;10550057;28;20040;-81
2021/07/17 01:16:08;;;;;;;15.88;7.13;;;;;;;;;;10531872;28;20492;-81
2021/07/17 01:21:15;;;;;;;15.00;6.97;;;;;;;;;;10550672;28;20077;-81
2021/07/17 01:26:16;;;;;;;13.40;6.95;;;;;;;;;;10549716;28;20039;-82
2021/07/17 01:31:18;;;;;;;11.80;6.15;;;;;;;;;;10531664;28;20498;-82
2021/07/17 01:36:19;;;;;;;13.68;6.80;;;;;;;;;;10531366;28;20055;-82
2021/07/17 01:41:23;;;;;;;10.45;5.90;;;;;;;;;;10531514;28;20047;-83
2021/07/17 01:46:39;;;;;;;15.57;7.22;;;;;;;;;;10551807;28;20420;-83
2021/07/17 01:51:40;;;;;;;16.65;7.82;;;;;;;;;;10551648;28;20059;-82
2021/07/17 01:56:41;;;;;;;14.60;7.18;;;;;;;;;;10532361;28;20040;-82
2021/07/17 02:01:42;;;;;;;7.80;5.22;;;;;;;;;;10514540;28;20367;-82
2021/07/17 02:06:43;;;;;;;7.32;5.20;;;;;;;;;;10535259;28;20075;-82
2021/07/17 02:11:44;;;;;;;10.55;5.90;;;;;;;;;;10540455;28;20039;-82
2021/07/17 02:16:45;;;;;;;12.07;5.95;;;;;;;;;;10545994;28;20101;-82
2021/07/17 02:21:50;;;;;;;17.52;7.90;;;;;;;;;;10538467;28;20028;-81
2021/07/17 02:26:51;;;;;;;10.60;5.97;;;;;;;;;;10537649;28;20028;-82
2021/07/17 02:31:52;;;;;;;16.35;7.70;;;;;;;;;;10537860;28;20454;-82
2021/07/17 02:36:53;;;;;;;11.73;6.88;;;;;;;;;;10537963;28;20032;-82
2021/07/17 02:41:54;;;;;;;9.88;5.68;;;;;;;;;;10538285;28;20032;-82
2021/07/17 02:46:55;;;;;;;11.20;6.25;;;;;;;;;;10554782;28;20051;-82
2021/07/17 02:51:56;;;;;;;9.93;6.20;;;;;;;;;;10533963;28;20040;-82
2021/07/17 02:56:57;;;;;;;12.18;6.55;;;;;;;;;;10532336;28;20032;-81
2021/07/17 03:01:58;;;;;;;9.48;5.38;;;;;;;;;;10532703;28;20165;-82
2021/07/17 03:06:59;;;;;;;11.68;6.97;;;;;;;;;;10550472;28;20501;-82
2021/07/17 03:12:00;;;;;;;13.65;8.38;;;;;;;;;;10550277;28;20036;-81
2021/07/17 03:17:01;;;;;;;7.47;5.47;;;;;;;;;;10515809;28;20517;-81
2021/07/17 03:22:04;;;;;;;9.90;6.32;;;;;;;;;;10550306;28;20038;-81
2021/07/17 03:27:05;;;;;;;10.98;6.68;;;;;;;;;;10532249;28;20494;-81
2021/07/17 03:32:06;;;;;;;16.00;8.73;;;;;;;;;;10530403;28;20108;-81
2021/07/17 03:37:07;;;;;;;14.13;7.57;;;;;;;;;;10531227;28;20036;-81
2021/07/17 03:42:08;;;;;;;13.85;7.35;;;;;;;;;;10531424;28;20032;-82
2021/07/17 03:47:09;;;;;;;14.63;9.00;;;;;;;;;;10548785;28;20478;-81
2021/07/17 03:52:10;;;;;;;15.05;7.15;;;;;;;;;;10530458;28;20107;-81
2021/07/17 03:57:11;;;;;;;15.45;8.60;;;;;;;;;;10530429;28;20078;-81
2021/07/17 04:02:12;;;;;;;12.35;7.75;;;;;;;;;;10530590;28;20112;-81
2021/07/17 04:07:13;;;;;;;10.57;7.00;;;;;;;;;;10529468;28;20052;-82
2021/07/17 04:12:14;;;;;;;17.30;9.25;;;;;;;;;;10529956;28;20043;-81
2021/07/17 04:17:15;;;;;;;10.32;6.80;;;;;;;;;;10529790;28;20036;-81
2021/07/17 04:22:16;;;;;;;19.92;10.15;;;;;;;;;;10550325;28;20028;-81
2021/07/17 04:27:17;;;;;;;17.70;10.05;;;;;;;;;;10532509;28;20032;-81
2021/07/17 04:32:18;;;;;;;13.30;8.93;;;;;;;;;;10544887;28;20039;-81
2021/07/17 04:37:19;;;;;;;13.63;8.13;;;;;;;;;;10563729;28;20036;-80
2021/07/17 04:42:20;;;;;;;10.60;6.13;;;;;;;;;;10564289;28;20040;-81
2021/07/17 04:47:21;;;;;;;11.82;6.68;;;;;;;;;;10558834;28;20067;-81
2021/07/17 04:52:22;;;;;;;15.60;8.15;;;;;;;;;;10531016;28;20062;-83
2021/07/17 04:57:23;;;;;;;12.15;7.05;;;;;;;;;;10530186;28;20045;-82
2021/07/17 05:02:24;;;;;;;14.57;6.95;;;;;;;;;;10529804;28;20397;-81
2021/07/17 05:07:25;;;;;;;10.35;6.25;;;;;;;;;;10547741;28;20399;-81
2021/07/17 05:12:26;;;;;;;13.70;7.13;;;;;;;;;;10532789;28;20040;-82
2021/07/17 05:17:27;;;;;;;12.70;7.20;;;;;;;;;;10532304;28;20036;-82
2021/07/17 05:22:28;;;;;;;13.20;7.18;;;;;;;;;;10531280;28;20455;-82
2021/07/17 05:27:29;;;;;;;17.40;8.98;;;;;;;;;;10532619;28;20039;-82
2021/07/17 05:32:30;;;;;;;18.40;8.05;;;;;;;;;;10529861;28;20040;-82
2021/07/17 05:37:31;;;;;;;15.15;7.70;;;;;;;;;;10532346;28;20047;-86
2021/07/17 05:42:32;;;;;;;18.45;8.88;;;;;;;;;;10528601;28;20401;-86
2021/07/17 05:47:33;;;;;;;14.43;6.93;;;;;;;;;;10530511;28;20063;-85
2021/07/17 05:52:34;;;;;;;15.93;8.27;;;;;;;;;;10528715;28;20040;-85
2021/07/17 05:57:36;;;;;;;18.63;7.85;;;;;;;;;;10528573;28;20056;-85
2021/07/17 06:02:39;;;;;;;15.20;8.27;;;;;;;;;;10546781;28;20058;-86
2021/07/17 06:07:40;;;;;;;16.65;8.25;;;;;;;;;;10532536;28;20426;-86
2021/07/17 06:12:41;;;;;;;12.73;7.05;;;;;;;;;;10532637;28;20406;-86
2021/07/17 06:17:42;;;;;;;13.75;6.97;;;;;;;;;;10529285;28;20044;-84
2021/07/17 06:22:43;;;;;;;19.65;9.85;;;;;;;;;;10531378;28;20077;-86
2021/07/17 06:27:44;;;;;;;16.40;8.18;;;;;;;;;;10534646;28;20036;-86
2021/07/17 06:32:45;;;;;;;17.00;7.93;;;;;;;;;;10531778;28;20489;-85
2021/07/17 06:37:46;;;;;;;13.00;6.63;;;;;;;;;;10532865;28;20143;-85
2021/07/17 06:42:48;;;;;;;18.42;8.02;;;;;;;;;;10531690;28;20109;-84
2021/07/17 06:47:49;;;;;;;15.35;7.53;;;;;;;;;;10538829;28;20013;-83
2021/07/17 06:52:50;;;;;;;16.63;7.75;;;;;;;;;;10550415;28;20032;-84
2021/07/17 06:57:51;;;;;;;22.27;8.75;;;;;;;;;;10539902;28;20036;-83
2021/07/17 07:02:58;;;;;;;11.15;6.18;;;;;;;;;;10539040;28;20431;-86
2021/07/17 07:24:57;;;;;;;12.75;6.15;;;;;;;;;;10551672;28;20042;-86
2021/07/17 07:30:17;;;;;;;12.93;5.72;;;;;;;;;;10469961;28;20058;-84
2021/07/17 07:35:38;;;;;;;12.43;5.70;;;;;;;;;;10546745;28;20024;-86
2021/07/17 07:46:41;;;;;;;8.88;5.38;;;;;;;;;;10573787;28;20044;-86
2021/07/17 07:51:43;;;;;;;11.02;5.47;;;;;;;;;;10561780;28;20036;-85
2021/07/17 07:56:45;;;;;;;9.90;5.15;;;;;;;;;;10541584;28;20104;-84
2021/07/17 08:02:27;;;;;;;10.43;5.68;;;;;;;;;;10556203;28;20036;-85
2021/07/17 08:07:33;;;;;;;11.15;5.18;;;;;;;;;;10556414;28;20055;-84
2021/07/17 08:12:36;;;;;;;11.13;5.28;;;;;;;;;;10538246;28;20513;-85
2021/07/17 08:17:37;;;;;;;9.77;4.80;;;;;;;;;;10517892;28;20117;-85
2021/07/17 08:22:48;;;;;;;8.90;4.60;;;;;;;;;;10532383;28;20080;-85
2021/07/17 08:28:18;;;;;;;10.52;4.95;;;;;;;;;;10530024;28;20028;-85
2021/07/17 08:38:58;;;;;;;11.80;4.60;;;;;;;;;;10559389;28;20024;-85
2021/07/17 08:44:18;;;;;;;10.13;5.00;;;;;;;;;;10541623;28;20032;-84
2021/07/17 08:49:20;;;;;;;11.70;4.90;;;;;;;;;;10538307;28;20481;-84
2021/07/17 08:54:37;;;;;;;10.10;4.47;;;;;;;;;;10537795;28;20040;-85
2021/07/17 08:59:39;;;;;;;10.80;5.03;;;;;;;;;;10537278;28;20102;-83
2021/07/17 09:05:27;;;;;;;12.15;4.63;;;;;;;;;;10536383;28;20031;-84
2021/07/17 09:10:36;;;;;;;8.95;4.22;;;;;;;;;;10534225;28;20067;-84
2021/07/17 09:15:40;;;;;;;8.63;4.13;;;;;;;;;;10536306;28;20028;-83
2021/07/17 09:20:53;;;;;;;6.70;3.50;;;;;;;;;;10553442;28;20151;-83
2021/07/17 09:25:55;;;;;;;8.70;3.22;;;;;;;;;;10534417;28;20028;-84
2021/07/17 09:30:57;;;;;;;9.85;3.20;;;;;;;;;;10534584;28;20119;-83
2021/07/17 09:36:29;;;;;;;7.75;4.80;;;;;;;;;;10536377;28;20119;-84
2021/07/17 09:42:12;;;;;;;7.28;2.90;;;;;;;;;;10426793;28;20026;-84
2021/07/17 09:47:15;;;;;;;8.80;3.80;;;;;;;;;;10413705;28;20030;-83
2021/07/17 09:52:49;;;;;;;7.30;3.53;;;;;;;;;;10408220;28;20037;-81
2021/07/17 09:57:58;;;;;;;6.70;3.00;;;;;;;;;;10419102;28;20077;-85
2021/07/17 10:03:02;;;;;;;7.25;3.00;;;;;;;;;;10411077;28;20121;-85
2021/07/17 10:08:08;;;;;;;5.75;3.35;;;;;;;;;;10428569;28;20042;-83
2021/07/17 10:13:37;;;;;;;9.18;3.42;;;;;;;;;;10406842;28;20041;-84
2021/07/17 10:18:49;;;;;;;6.40;3.20;;;;;;;;;;10425262;28;20048;-84
2021/07/17 10:24:01;;;;;;;6.13;3.25;;;;;;;;;;10421431;28;20041;-84
2021/07/17 10:29:24;;;;;;;7.43;3.63;;;;;;;;;;10367922;28;20120;-83
2021/07/17 10:34:55;;;;;;;5.40;2.80;;;;;;;;;;10567044;28;20044;-85
2021/07/17 10:40:05;;;;;;;8.77;3.90;;;;;;;;;;10536246;28;20549;-84
2021/07/17 10:45:07;;;;;;;5.72;3.20;;;;;;;;;;10545089;28;20101;-85
2021/07/17 10:50:16;;;;;;;5.60;2.55;;;;;;;;;;10543054;28;20036;-83
2021/07/17 10:55:23;;;;;;;4.53;2.15;;;;;;;;;;10542494;28;20494;-84
2021/07/17 11:06:35;;;;;;;5.38;2.50;;;;;;;;;;10590291;28;20032;-81
2021/07/17 11:11:44;;;;;;;5.30;2.67;;;;;;;;;;10574092;28;20035;-85
2021/07/17 11:17:48;;;;;;;5.57;2.30;;;;;;;;;;10575517;28;20028;-84
2021/07/17 11:23:01;;;;;;;8.05;2.90;;;;;;;;;;10517557;28;20044;-85
2021/07/17 11:28:08;;;;;;;5.13;2.35;;;;;;;;;;10542108;28;20028;-84
2021/07/17 11:33:15;;;;;;;8.88;6.32;;;;;;;;;;10556821;28;20044;-85
2021/07/17 11:38:16;;;;;;;5.22;2.33;;;;;;;;;;10572917;22;20054;-84
2021/07/17 11:43:19;;;;;;;5.10;2.15;;;;;;;;;;10596074;28;20150;-84
2021/07/17 11:48:56;;;;;;;5.93;2.20;;;;;;;;;;10580949;28;20032;-84
2021/07/17 11:54:09;;;;;;;5.65;2.03;;;;;;;;;;10586686;28;20409;-84
2021/07/17 11:59:17;;;;;;;5.93;1.98;;;;;;;;;;10594543;28;20165;-85
2021/07/17 12:04:32;;;;;;;6.68;2.08;;;;;;;;;;10594186;28;20049;-83
2021/07/17 12:09:34;;;;;;;5.10;1.85;;;;;;;;;;10582989;28;20208;-85
2021/07/17 12:14:49;;;;;;;4.88;1.90;;;;;;;;;;10587971;28;20058;-86
2021/07/17 12:20:09;;;;;;;6.00;1.90;;;;;;;;;;10585413;28;20051;-85
2021/07/17 12:25:20;;;;;;;6.20;2.30;;;;;;;;;;10601799;28;20047;-85
2021/07/17 12:30:22;;;;;;;5.50;2.10;;;;;;;;;;10584612;28;20062;-85
2021/07/17 12:35:24;;;;;;;4.15;1.92;;;;;;;;;;10585547;28;20028;-86
2021/07/17 12:40:25;;;;;;;4.32;1.75;;;;;;;;;;10584119;28;20034;-86
2021/07/17 12:45:26;;;;;;;4.10;1.67;;;;;;;;;;10584438;28;20035;-86
2021/07/17 12:50:27;;;;;;;2.63;1.60;;;;;;;;;;10583667;28;20122;-86
2021/07/17 12:55:28;;;;;;;8.82;1.73;;;;;;;;;;10579957;28;20040;-86
2021/07/17 13:00:29;;;;;;;5.32;1.73;;;;;;;;;;10580241;28;20032;-83
2021/07/17 13:05:57;;;;;;;4.55;1.65;;;;;;;;;;10583104;28;20485;-83
2021/07/17 13:10:58;;;;;;;3.60;1.63;;;;;;;;;;10576266;28;20035;-83
2021/07/17 13:16:00;;;;;;;3.03;1.58;;;;;;;;;;10572909;28;20069;-82
2021/07/17 13:21:03;;;;;;;4.65;2.63;;;;;;;;;;10574060;28;20031;-83
2021/07/17 13:26:16;;;;;;;3.30;1.40;;;;;;;;;;10574088;28;20595;-83
2021/07/17 13:31:18;;;;;;;3.28;1.63;;;;;;;;;;10574008;28;20039;-83
2021/07/17 13:36:22;;;;;;;3.92;1.65;;;;;;;;;;10592564;28;20447;-83
2021/07/17 13:41:23;;;;;;;2.92;1.50;;;;;;;;;;10574306;28;20107;-82
2021/07/17 13:46:24;;;;;;;4.97;1.67;;;;;;;;;;10571821;28;20107;-82
2021/07/17 13:51:32;;;;;;;3.88;1.85;;;;;;;;;;10573274;28;20074;-82
2021/07/17 13:56:33;;;;;;;3.50;1.67;;;;;;;;;;10573309;28;20028;-82
2021/07/17 14:01:34;;;;;;;5.45;1.80;;;;;;;;;;10575249;28;20427;-82
2021/07/17 14:06:35;;;;;;;3.40;1.52;;;;;;;;;;10573510;28;20036;-82
2021/07/17 14:11:36;;;;;;;5.28;1.70;;;;;;;;;;10573542;28;20034;-81
2021/07/17 14:16:37;;;;;;;3.72;1.55;;;;;;;;;;10575921;28;20031;-81
2021/07/17 14:21:38;;;;;;;5.22;1.70;;;;;;;;;;10595017;28;20043;-81
2021/07/17 14:26:39;;;;;;;5.03;1.92;;;;;;;;;;10599409;28;20054;-81
2021/07/17 14:31:40;;;;;;;3.58;1.50;;;;;;;;;;10590356;28;20042;-84
2021/07/17 14:36:41;;;;;;;5.40;1.60;;;;;;;;;;10555954;28;20055;-82
2021/07/17 14:41:42;;;;;;;5.25;1.85;;;;;;;;;;10572334;28;20035;-82
2021/07/17 14:46:43;;;;;;;4.45;1.60;;;;;;;;;;10572489;28;20397;-82
2021/07/17 14:51:44;;;;;;;2.83;1.42;;;;;;;;;;10573294;28;20032;-82
2021/07/17 14:56:45;;;;;;;3.33;1.40;;;;;;;;;;10593987;28;20040;-82
2021/07/17 15:01:46;;;;;;;2.88;1.40;;;;;;;;;;10574710;28;20027;-83
2021/07/17 15:06:47;;;;;;;4.50;1.33;;;;;;;;;;10572384;28;20031;-82
2021/07/17 15:11:48;;;;;;;4.07;1.60;;;;;;;;;;10573356;28;20035;-82
2021/07/17 15:16:49;;;;;;;3.75;1.45;;;;;;;;;;10574201;28;20489;-82
2021/07/17 15:21:50;;;;;;;2.92;1.55;;;;;;;;;;10577854;28;20039;-83
2021/07/17 15:26:51;;;;;;;2.88;1.60;;;;;;;;;;10578341;28;20024;-83
2021/07/17 15:31:52;;;;;;;4.20;1.40;;;;;;;;;;10576950;28;20143;-82
2021/07/17 15:36:59;;;;;;;2.67;1.35;;;;;;;;;;10577085;28;20040;-82
2021/07/17 15:42:01;;;;;;;3.38;1.40;;;;;;;;;;10574999;28;20057;-82
2021/07/17 15:47:02;;;;;;;4.25;1.30;;;;;;;;;;10577153;28;20031;-82
2021/07/17 15:52:03;;;;;;;3.47;1.58;;;;;;;;;;10576950;28;20118;-82
2021/07/17 15:57:07;;;;;;;4.40;1.40;;;;;;;;;;10578627;28;20028;-82
2021/07/17 16:02:08;;;;;;;4.18;1.70;;;;;;;;;;10576079;28;20031;-83
2021/07/17 16:07:09;;;;;;;2.78;1.50;;;;;;;;;;10578549;28;20028;-83
2021/07/17 16:12:10;;;;;;;3.53;1.50;;;;;;;;;;10577962;28;20035;-83
2021/07/17 16:17:12;;;;;;;4.28;1.90;;;;;;;;;;10575480;28;20108;-83
2021/07/17 16:22:13;;;;;;;3.92;1.70;;;;;;;;;;10574659;28;20039;-83
2021/07/17 16:27:14;;;;;;;2.67;1.50;;;;;;;;;;10575992;28;20423;-82
2021/07/17 16:32:15;;;;;;;4.38;1.50;;;;;;;;;;10575503;28;20031;-83
2021/07/17 16:37:16;;;;;;;3.40;1.45;;;;;;;;;;10574867;28;20062;-82
2021/07/17 16:42:17;;;;;;;2.05;1.15;;;;;;;;;;10575561;28;20032;-82
2021/07/17 16:47:18;;;;;;;2.28;1.30;;;;;;;;;;10574523;28;20600;-83
2021/07/17 16:52:19;;;;;;;3.47;1.48;;;;;;;;;;10592330;28;20035;-83
2021/07/17 16:57:19;;;;;;;3.83;1.83;;;;;;;;;;10573274;28;20038;-83
2021/07/17 17:02:20;;;;;;;3.92;1.58;;;;;;;;;;10574211;28;20032;-83
2021/07/17 17:07:21;;;;;;;2.15;1.10;;;;;;;;;;10575221;28;20123;-82
2021/07/17 17:12:22;;;;;;;3.33;1.45;;;;;;;;;;10573222;28;20534;-83
2021/07/17 17:17:24;;;;;;;2.30;1.17;;;;;;;;;;10573264;28;20116;-83
2021/07/17 17:22:26;;;;;;;4.35;1.13;;;;;;;;;;10591102;28;20515;-82
2021/07/17 17:27:27;;;;;;;3.35;1.30;;;;;;;;;;10612058;27;20027;-84
2021/07/17 17:32:49;;;;;;;3.33;1.20;;;;;;;;;;10616628;27;20035;-83
2021/07/17 17:37:54;;;;;;;3.33;1.10;;;;;;;;;;10617057;22;20040;-83
2021/07/17 17:42:57;;;;;;;3.25;1.10;;;;;;;;;;10595064;28;20048;-83
2021/07/17 17:47:58;;;;;;;2.90;1.10;;;;;;;;;;10587471;28;20024;-85
2021/07/17 17:52:59;;;;;;;2.97;1.10;;;;;;;;;;10607186;28;20649;-86
2021/07/17 17:58:00;;;;;;;1.67;1.00;;;;;;;;;;10593837;28;20043;-88
2021/07/17 18:03:01;;;;;;;1.63;1.00;;;;;;;;;;10573262;28;20039;-86
2021/07/17 18:08:02;;;;;;;2.63;1.40;;;;;;;;;;10574448;28;20396;-86
2021/07/17 18:13:03;;;;;;;2.28;1.20;;;;;;;;;;10576702;28;20036;-86
2021/07/17 18:18:04;;;;;;;2.72;1.20;;;;;;;;;;10589702;27;20024;-86
2021/07/17 18:23:06;;;;;;;3.17;1.10;;;;;;;;;;10606611;28;20100;-87
2021/07/17 18:28:07;;;;;;;19.27;17.42;;;;;;;;;;10609310;28;20040;-86
2021/07/17 18:33:08;;;;;;;2.28;1.45;;;;;;;;;;10586997;28;20036;-86
2021/07/17 18:38:10;;;;;;;2.72;1.30;;;;;;;;;;10585928;28;20114;-86
2021/07/17 18:43:11;;;;;;;2.85;1.40;;;;;;;;;;10569911;28;20162;-84
2021/07/17 18:48:12;;;;;;;2.40;1.30;;;;;;;;;;10571794;28;20386;-84
2021/07/17 18:53:13;;;;;;;2.25;1.27;;;;;;;;;;10576963;28;20099;-84
2021/07/17 18:58:14;;;;;;;1.63;1.10;;;;;;;;;;10599867;28;20415;-83
2021/07/17 19:03:15;;;;;;;1.77;1.20;;;;;;;;;;10579354;28;20055;-83
2021/07/17 19:08:16;;;;;;;2.92;1.20;;;;;;;;;;10579644;28;20036;-83
2021/07/17 19:13:17;;;;;;;3.35;1.20;;;;;;;;;;10595644;28;20031;-84
2021/07/17 19:18:18;;;;;;;2.40;1.05;;;;;;;;;;10577496;28;20130;-84
2021/07/17 19:23:20;;;;;;;1.83;1.13;;;;;;;;;;10576181;28;20039;-84
2021/07/17 19:28:21;;;;;;;5.30;1.27;;;;;;;;;;10594101;28;20027;-84
2021/07/17 19:33:23;;;;;;;2.55;1.30;;;;;;;;;;10574834;28;20047;-86
2021/07/17 19:38:24;;;;;;;1.88;1.10;;;;;;;;;;10573282;28;20050;-86
2021/07/17 19:43:26;;;;;;;2.08;1.25;;;;;;;;;;10572824;28;20042;-86
2021/07/17 19:48:27;;;;;;;2.17;1.27;;;;;;;;;;10572525;28;20370;-86
2021/07/17 19:53:27;;;;;;;2.35;1.40;;;;;;;;;;10589600;28;20485;-86
2021/07/17 19:58:28;;;;;;;2.33;1.20;;;;;;;;;;10572302;28;20028;-86
2021/07/17 20:03:30;;;;;;;2.50;1.40;;;;;;;;;;10571082;28;20039;-86
2021/07/17 20:08:31;;;;;;;1.45;1.10;;;;;;;;;;10570885;28;20076;-86
2021/07/17 20:13:32;;;;;;;1.95;1.23;;;;;;;;;;10571969;28;20050;-86
2021/07/17 20:18:33;;;;;;;2.00;1.60;;;;;;;;;;10572287;28;20038;-86
2021/07/17 20:23:34;;;;;;;1.70;1.17;;;;;;;;;;10571100;28;20392;-86
2021/07/17 20:28:35;;;;;;;2.00;1.17;;;;;;;;;;10570175;28;20076;-86
2021/07/17 20:33:36;;;;;;;2.47;1.25;;;;;;;;;;10569403;28;20120;-86
2021/07/17 20:38:38;;;;;;;2.38;1.58;;;;;;;;;;10572565;28;20065;-86
2021/07/17 20:43:39;;;;;;;3.78;1.75;;;;;;;;;;10573159;28;20040;-86
2021/07/17 20:48:40;;;;;;;2.92;1.30;;;;;;;;;;10570073;28;20031;-86
2021/07/17 20:53:41;;;;;;;2.15;1.50;;;;;;;;;;10568818;28;20135;-85
2021/07/17 20:58:42;;;;;;;4.43;1.60;;;;;;;;;;10569720;28;20036;-86
2021/07/17 21:03:43;;;;;;;2.72;1.50;;;;;;;;;;10568895;28;20035;-86
2021/07/17 21:08:44;;;;;;;4.07;1.70;;;;;;;;;;10587383;28;20397;-86
2021/07/17 21:13:45;;;;;;;2.10;1.30;;;;;;;;;;10566807;28;20077;-86
2021/07/17 21:18:46;;;;;;;2.00;1.33;;;;;;;;;;10590954;28;20039;-86
2021/07/17 21:23:47;;;;;;;4.40;1.65;;;;;;;;;;10628305;28;20043;-86
2021/07/17 21:28:48;;;;;;;2.70;1.63;;;;;;;;;;10611899;28;20031;-86
2021/07/17 21:33:49;;;;;;;2.47;1.50;;;;;;;;;;10586262;28;20034;-84
2021/07/17 21:38:50;;;;;;;2.00;1.30;;;;;;;;;;10589517;28;20074;-84
2021/07/17 21:43:51;;;;;;;3.42;1.50;;;;;;;;;;10572055;28;20035;-84
2021/07/17 21:48:52;;;;;;;3.15;1.38;;;;;;;;;;10570744;28;20027;-84
2021/07/17 21:53:53;;;;;;;2.28;1.30;;;;;;;;;;10591002;28;20036;-84
2021/07/17 21:58:53;;;;;;;2.33;1.10;;;;;;;;;;10569924;28;20035;-83
2021/07/17 22:03:54;;;;;;;2.70;1.35;;;;;;;;;;10569811;28;20488;-84
2021/07/17 22:08:55;;;;;;;4.95;1.70;;;;;;;;;;10569960;28;20039;-84
2021/07/17 22:13:56;;;;;;;3.22;2.17;;;;;;;;;;10587555;28;20482;-83
2021/07/17 22:18:57;;;;;;;3.95;1.95;;;;;;;;;;10569940;28;20039;-84
2021/07/17 22:23:58;;;;;;;2.63;1.90;;;;;;;;;;10572095;28;20370;-84
2021/07/17 22:28:59;;;;;;;2.20;1.50;;;;;;;;;;10577781;28;20067;-84
2021/07/17 22:34:00;;;;;;;2.40;1.60;;;;;;;;;;10596376;28;20035;-84
2021/07/17 22:39:01;;;;;;;2.90;1.70;;;;;;;;;;10579153;28;20524;-84
2021/07/17 22:44:02;;;;;;;3.03;1.77;;;;;;;;;;10599467;28;20031;-84
2021/07/17 22:49:03;;;;;;;2.65;1.80;;;;;;;;;;10580152;28;20042;-84
2021/07/17 22:54:04;;;;;;;3.20;1.48;;;;;;;;;;10581725;28;20040;-84
2021/07/17 22:59:05;;;;;;;2.88;2.15;;;;;;;;;;10600147;28;20031;-84
2021/07/17 23:04:06;;;;;;;4.22;2.53;;;;;;;;;;10600530;28;20064;-85
2021/07/17 23:09:07;;;;;;;3.00;2.40;;;;;;;;;;10579911;28;20112;-84
2021/07/17 23:14:08;;;;;;;2.13;1.80;;;;;;;;;;10579505;28;20067;-85
2021/07/17 23:19:09;;;;;;;3.28;2.30;;;;;;;;;;10579917;28;20032;-83
2021/07/17 23:24:10;;;;;;;2.92;1.80;;;;;;;;;;10578686;28;20036;-84
2021/07/17 23:29:10;;;;;;;3.53;1.67;;;;;;;;;;10579041;28;20031;-83
2021/07/17 23:34:11;;;;;;;4.25;1.80;;;;;;;;;;10579121;28;20508;-83
2021/07/17 23:39:12;;;;;;;3.15;2.13;;;;;;;;;;10602669;22;20043;-82
2021/07/17 23:44:13;;;;;;;3.75;2.40;;;;;;;;;;10614135;28;20036;-83
2021/07/17 23:49:14;;;;;;;2.85;1.70;;;;;;;;;;10562786;28;20474;-83
2021/07/17 23:54:15;;;;;;;3.58;2.00;;;;;;;;;;10537054;28;20032;-83
2021/07/17 23:59:16;;;;;;;2.47;1.67;;;;;;;;;;10554864;28;20071;-83
